青島 の空港の天気 - METARとTAF

青島流亭国際空港 ( ZSQD / TAO ) - 中国 山東省青島市
飛行場実況気象(Metar)
観測時間08/18 10:00 CST (08/18 02:00 UTC)
風向・風速東北東 2m/s
視程10km以上
天気現象
なし
気温29℃
湿度52%
気圧1008hPa
METARZSQD 180200Z 06002MPS 360V170 CAVOK 29/18 Q1008 NOSIG
過去の天気等 Google飛行場航空写真 Wunderground天気予報

過去48時間のMETAR

飛行場予報(TAF)
発表時間: 8/18 03:14 CST (8/17 19:14 UTC)
予報対象時間: 18日8時 CST ~ 19日8時 CST
風向・風速北 3m/s
視程10km以上
なし
18日13時 CST ~ 18日14時 CST に徐々に
風向・風速南 5m/s
19日6時 CST ~ 19日7時 CST に徐々に
風向・風速北 3m/s
TAF ZSQD 171914Z 1800/1824 36003MPS CAVOK TX31/1807Z TN18/1820Z
BECMG 1805/1806 18005MPS
BECMG 1822/1823 36003MPS